createdAt,value
2018-02-20T00:00:16.618Z,0
2018-02-20T00:01:30.605Z,0
2018-02-20T00:02:44.879Z,0
2018-02-20T00:03:59.884Z,0
2018-02-20T00:05:14.013Z,0
2018-02-20T00:06:27.608Z,0
2018-02-20T00:07:41.938Z,0
2018-02-20T00:08:56.599Z,0
2018-02-20T00:10:10.612Z,0
2018-02-20T00:11:24.668Z,0
2018-02-20T00:12:38.755Z,0
2018-02-20T00:13:53.085Z,0
2018-02-20T00:15:06.948Z,0
2018-02-20T00:16:21.447Z,0
2018-02-20T00:17:35.340Z,0
2018-02-20T00:18:49.880Z,0
2018-02-20T00:20:03.898Z,0
2018-02-20T00:21:18.310Z,0
2018-02-20T00:22:32.332Z,0
2018-02-20T00:23:46.837Z,0
2018-02-20T00:25:01.329Z,0
2018-02-20T00:26:14.885Z,0
2018-02-20T00:27:29.131Z,0
2018-02-20T00:28:43.686Z,0
2018-02-20T00:29:57.720Z,0
2018-02-20T00:31:12.215Z,0
2018-02-20T00:32:26.532Z,0
2018-02-20T00:33:40.787Z,0
2018-02-20T00:34:55.198Z,0
2018-02-20T00:36:09.790Z,0
2018-02-20T00:37:24.124Z,0
2018-02-20T00:38:38.701Z,0
2018-02-20T00:39:53.186Z,0
2018-02-20T00:41:07.695Z,0
2018-02-20T00:42:22.224Z,0
2018-02-20T00:43:36.217Z,0
2018-02-20T00:44:49.978Z,0
2018-02-20T00:46:04.530Z,0
2018-02-20T00:47:19.048Z,0
2018-02-20T00:48:33.555Z,0
2018-02-20T00:49:47.152Z,0
2018-02-20T00:51:01.509Z,0
2018-02-20T00:52:15.301Z,0
2018-02-20T00:53:29.558Z,0
2018-02-20T00:54:43.839Z,0
2018-02-20T00:55:58.360Z,0
2018-02-20T00:57:12.398Z,0
2018-02-20T00:58:26.664Z,0
2018-02-20T00:59:40.693Z,0
2018-02-20T01:00:54.941Z,0
2018-02-20T01:02:08.965Z,0
2018-02-20T01:03:23.231Z,0
2018-02-20T01:04:36.987Z,0
2018-02-20T01:05:50.735Z,0
2018-02-20T01:07:04.752Z,0
2018-02-20T01:08:19.036Z,0
2018-02-20T01:09:33.556Z,0
2018-02-20T01:10:47.557Z,0
2018-02-20T01:12:02.302Z,0
2018-02-20T01:13:16.821Z,0
2018-02-20T01:14:31.540Z,0
2018-02-20T01:15:46.015Z,0
2018-02-20T01:17:00.502Z,0
2018-02-20T01:18:14.270Z,0
2018-02-20T01:19:27.558Z,0
2018-02-20T01:20:41.807Z,0
2018-02-20T01:21:56.044Z,0
2018-02-20T01:23:10.351Z,0
2018-02-20T01:24:24.918Z,0
2018-02-20T01:25:38.947Z,0
2018-02-20T01:26:52.683Z,0
2018-02-20T01:28:06.475Z,0
2018-02-20T01:29:20.741Z,0
2018-02-20T01:30:34.710Z,0
2018-02-20T01:31:48.451Z,0
2018-02-20T01:33:02.943Z,0
2018-02-20T01:34:16.696Z,0
2018-02-20T01:35:30.708Z,0
2018-02-20T01:36:45.201Z,0
2018-02-20T01:37:59.421Z,0
2018-02-20T01:39:13.206Z,0
2018-02-20T01:40:26.980Z,0
2018-02-20T01:41:41.500Z,0
2018-02-20T01:42:55.479Z,0
2018-02-20T01:44:09.474Z,0
2018-02-20T01:45:23.951Z,0
2018-02-20T01:46:38.455Z,0
2018-02-20T01:47:52.703Z,0
2018-02-20T01:49:07.166Z,0
2018-02-20T01:50:21.399Z,0
2018-02-20T01:51:35.156Z,0
2018-02-20T01:52:49.901Z,0
2018-02-20T01:54:04.117Z,0
2018-02-20T01:55:18.387Z,0
2018-02-20T01:56:32.875Z,0
2018-02-20T01:57:46.969Z,0
2018-02-20T01:59:01.464Z,0
2018-02-20T02:00:15.237Z,0
2018-02-20T02:01:29.479Z,0
2018-02-20T02:02:43.687Z,0
2018-02-20T02:03:57.403Z,0
2018-02-20T02:05:12.182Z,0
2018-02-20T02:06:25.928Z,0
2018-02-20T02:07:40.155Z,0
2018-02-20T02:08:54.875Z,0
2018-02-20T02:10:09.103Z,0
2018-02-20T02:11:23.580Z,0
2018-02-20T02:12:37.811Z,0
2018-02-20T02:13:52.042Z,0
2018-02-20T02:15:06.301Z,0
2018-02-20T02:16:20.560Z,0
2018-02-20T02:17:35.040Z,0
2018-02-20T02:18:49.821Z,0
2018-02-20T02:20:04.630Z,0
2018-02-20T02:21:19.080Z,0
2018-02-20T02:22:33.325Z,0
2018-02-20T02:23:47.776Z,0
2018-02-20T02:25:17.139Z,0
2018-02-20T02:26:30.667Z,0
2018-02-20T02:27:44.675Z,0
2018-02-20T02:28:58.730Z,0
2018-02-20T02:30:13.328Z,0
2018-02-20T02:31:28.101Z,0
2018-02-20T02:32:42.343Z,0
2018-02-20T02:33:56.589Z,0
2018-02-20T02:35:10.612Z,0
2018-02-20T02:36:24.865Z,0
2018-02-20T02:37:39.605Z,0
2018-02-20T02:38:54.087Z,0
2018-02-20T02:40:08.095Z,0
2018-02-20T02:41:22.833Z,0
2018-02-20T02:42:37.317Z,0
2018-02-20T02:43:51.552Z,0
2018-02-20T02:45:05.295Z,0
2018-02-20T02:46:19.767Z,0
2018-02-20T02:47:34.489Z,0
2018-02-20T02:48:48.734Z,0
2018-02-20T02:50:02.766Z,0
2018-02-20T02:51:16.530Z,0
2018-02-20T02:52:30.993Z,0
2018-02-20T02:53:45.233Z,0
2018-02-20T02:54:59.243Z,0
2018-02-20T02:56:13.482Z,0
2018-02-20T02:57:28.230Z,0
2018-02-20T02:58:42.742Z,0
2018-02-20T02:59:56.785Z,0
2018-02-20T03:01:11.538Z,0
2018-02-20T03:02:25.052Z,0
2018-02-20T03:03:39.394Z,0
2018-02-20T03:04:53.912Z,0
2018-02-20T03:06:08.433Z,0
2018-02-20T03:07:23.017Z,0
2018-02-20T03:08:37.751Z,0
2018-02-20T03:09:51.759Z,0
2018-02-20T03:11:06.017Z,0
2018-02-20T03:12:20.507Z,0
2018-02-20T03:13:34.973Z,0
2018-02-20T03:14:48.730Z,0
2018-02-20T03:16:02.989Z,0
2018-02-20T03:17:17.226Z,0
2018-02-20T03:18:31.979Z,0
2018-02-20T03:19:46.443Z,0
2018-02-20T03:21:00.918Z,0
2018-02-20T03:22:15.420Z,0
2018-02-20T03:23:29.903Z,0
2018-02-20T03:24:44.140Z,0
2018-02-20T03:25:57.628Z,0
2018-02-20T03:27:11.627Z,0
2018-02-20T03:28:26.104Z,0
2018-02-20T03:29:39.845Z,0
2018-02-20T03:30:53.840Z,0
2018-02-20T03:32:07.101Z,0
2018-02-20T03:33:21.311Z,0
2018-02-20T03:34:35.775Z,0
2018-02-20T03:35:49.528Z,0
2018-02-20T03:37:03.624Z,0
2018-02-20T03:38:17.610Z,0
2018-02-20T03:39:31.610Z,0
2018-02-20T03:40:45.612Z,0
2018-02-20T03:42:00.087Z,0
2018-02-20T03:43:14.137Z,0
2018-02-20T03:44:28.863Z,0
2018-02-20T03:45:42.865Z,0
2018-02-20T03:46:57.586Z,0
2018-02-20T03:48:12.076Z,0
2018-02-20T03:49:25.832Z,0
2018-02-20T03:50:40.073Z,0
2018-02-20T03:51:54.578Z,0
2018-02-20T03:53:08.805Z,0
2018-02-20T03:54:23.076Z,0
2018-02-20T03:55:37.554Z,0
2018-02-20T03:56:52.046Z,0
2018-02-20T03:58:06.048Z,0
2018-02-20T03:59:20.094Z,0
2018-02-20T04:00:34.110Z,0
2018-02-20T04:01:48.359Z,0
2018-02-20T04:03:02.866Z,0
2018-02-20T04:04:17.642Z,0
2018-02-20T04:05:31.656Z,0
2018-02-20T04:06:45.151Z,0
2018-02-20T04:07:59.176Z,0
2018-02-20T04:09:13.421Z,0
2018-02-20T04:10:27.547Z,0
2018-02-20T04:11:42.322Z,0
2018-02-20T04:12:56.854Z,0
2018-02-20T04:14:11.336Z,0
2018-02-20T04:15:25.830Z,0
2018-02-20T04:16:39.831Z,0
2018-02-20T04:17:53.806Z,0
2018-02-20T04:19:08.082Z,0
2018-02-20T04:20:22.081Z,0
2018-02-20T04:21:36.075Z,0
2018-02-20T04:22:50.619Z,0
2018-02-20T04:24:05.147Z,0
2018-02-20T04:25:19.135Z,0
2018-02-20T04:26:33.396Z,0
2018-02-20T04:27:47.926Z,0
2018-02-20T04:29:02.184Z,0
2018-02-20T04:30:16.435Z,0
2018-02-20T04:31:31.076Z,0
2018-02-20T04:32:46.042Z,0
2018-02-20T04:34:00.428Z,0
2018-02-20T04:35:14.705Z,0
2018-02-20T04:36:29.205Z,0
2018-02-20T04:37:43.738Z,0
2018-02-20T04:38:58.489Z,0
2018-02-20T04:40:12.971Z,0
2018-02-20T04:41:26.747Z,0
2018-02-20T04:42:40.495Z,0
2018-02-20T04:43:54.730Z,0
2018-02-20T04:45:08.747Z,0
2018-02-20T04:46:22.541Z,0
2018-02-20T04:47:36.816Z,0
2018-02-20T04:48:50.830Z,0
2018-02-20T04:50:04.608Z,0
2018-02-20T04:51:18.631Z,0
2018-02-20T04:52:32.667Z,0
2018-02-20T04:53:47.175Z,0
2018-02-20T04:55:01.181Z,0
2018-02-20T04:56:15.455Z,0
2018-02-20T04:57:29.751Z,0
2018-02-20T04:58:44.273Z,0
2018-02-20T04:59:58.562Z,0
2018-02-20T05:01:12.632Z,0
2018-02-20T05:02:26.948Z,0
2018-02-20T05:03:41.213Z,0
2018-02-20T05:04:55.493Z,0
2018-02-20T05:06:10.027Z,0
2018-02-20T05:07:24.335Z,0
2018-02-20T05:08:38.363Z,0
2018-02-20T05:09:52.453Z,0
2018-02-20T05:11:06.522Z,0
2018-02-20T05:12:20.854Z,0
2018-02-20T05:13:34.669Z,0
2018-02-20T05:14:48.428Z,0
2018-02-20T05:16:01.992Z,0
2018-02-20T05:17:16.328Z,0
2018-02-20T05:18:30.565Z,0
2018-02-20T05:19:45.058Z,0
2018-02-20T05:20:59.313Z,0
2018-02-20T05:22:13.439Z,0
2018-02-20T05:23:27.692Z,0
2018-02-20T05:24:41.696Z,0
2018-02-20T05:25:56.179Z,0
2018-02-20T05:27:10.412Z,0
2018-02-20T05:28:24.899Z,0
2018-02-20T05:29:39.146Z,0
2018-02-20T05:30:53.132Z,0
2018-02-20T05:32:07.635Z,0
2018-02-20T05:33:22.130Z,0
2018-02-20T05:34:36.358Z,0
2018-02-20T05:35:50.587Z,0
2018-02-20T05:37:04.588Z,0
2018-02-20T05:38:19.325Z,0
2018-02-20T05:39:33.567Z,0
2018-02-20T05:40:47.586Z,0
2018-02-20T05:42:01.566Z,0
2018-02-20T05:43:16.048Z,0
2018-02-20T05:44:30.517Z,0
2018-02-20T05:45:44.755Z,0
2018-02-20T05:46:58.734Z,0
2018-02-20T05:48:12.974Z,0
2018-02-20T05:49:27.206Z,0
2018-02-20T05:50:41.380Z,0
2018-02-20T05:51:55.626Z,0
2018-02-20T05:53:09.395Z,0
2018-02-20T05:54:23.657Z,0
2018-02-20T05:55:38.180Z,0
2018-02-20T05:56:52.428Z,0
2018-02-20T05:58:06.770Z,0
2018-02-20T05:59:20.758Z,0
2018-02-20T06:00:35.038Z,0
2018-02-20T06:01:48.791Z,0
2018-02-20T06:03:03.017Z,0
2018-02-20T06:04:17.321Z,0
2018-02-20T06:05:32.057Z,0
2018-02-20T06:06:46.294Z,0
2018-02-20T06:08:01.040Z,0
2018-02-20T06:09:15.529Z,0
2018-02-20T06:10:29.841Z,0
2018-02-20T06:11:43.664Z,0
2018-02-20T06:12:58.415Z,0
2018-02-20T06:14:12.929Z,0
2018-02-20T06:15:27.448Z,0
2018-02-20T06:16:42.207Z,0
2018-02-20T06:17:56.926Z,0
2018-02-20T06:19:11.225Z,0
2018-02-20T06:20:25.475Z,0
2018-02-20T06:21:39.997Z,0
2018-02-20T06:22:54.555Z,0
2018-02-20T06:24:08.695Z,0
2018-02-20T06:25:23.033Z,0
2018-02-20T06:26:37.294Z,0
2018-02-20T06:27:51.057Z,0
2018-02-20T06:29:05.578Z,0
2018-02-20T06:30:19.844Z,5
2018-02-20T06:31:34.105Z,5
2018-02-20T06:32:47.877Z,5
2018-02-20T06:34:02.640Z,5
2018-02-20T06:35:16.663Z,5
2018-02-20T06:36:30.783Z,5
2018-02-20T06:37:44.826Z,5
2018-02-20T06:38:59.513Z,5
2018-02-20T06:40:14.043Z,10
2018-02-20T06:41:28.073Z,10
2018-02-20T06:42:42.557Z,10
2018-02-20T06:43:56.818Z,10
2018-02-20T06:45:11.382Z,10
2018-02-20T06:46:26.116Z,15
2018-02-20T06:47:39.892Z,15
2018-02-20T06:48:54.173Z,15
2018-02-20T06:50:08.450Z,15
2018-02-20T06:51:22.733Z,15
2018-02-20T06:52:37.273Z,15
2018-02-20T06:53:51.811Z,15
2018-02-20T06:55:06.065Z,15
2018-02-20T06:56:19.839Z,20
2018-02-20T06:57:34.300Z,20
2018-02-20T06:58:48.291Z,20
2018-02-20T07:00:02.306Z,20
2018-02-20T07:01:16.330Z,20
2018-02-20T07:02:30.089Z,20
2018-02-20T07:03:45.092Z,20
2018-02-20T07:04:59.096Z,25
2018-02-20T07:06:13.581Z,25
2018-02-20T07:07:27.858Z,25
2018-02-20T07:08:42.095Z,25
2018-02-20T07:09:56.643Z,30
2018-02-20T07:11:10.637Z,30
2018-02-20T07:12:24.686Z,30
2018-02-20T07:13:39.173Z,30
2018-02-20T07:14:52.939Z,30
2018-02-20T07:16:07.272Z,35
2018-02-20T07:17:21.579Z,35
2018-02-20T07:18:35.636Z,35
2018-02-20T07:19:50.144Z,35
2018-02-20T07:21:03.886Z,35
2018-02-20T07:22:18.216Z,40
2018-02-20T07:23:32.026Z,40
2018-02-20T07:24:46.265Z,40
2018-02-20T07:26:00.520Z,40
2018-02-20T07:27:15.076Z,45
2018-02-20T07:28:29.451Z,45
2018-02-20T07:29:44.263Z,45
2018-02-20T07:30:58.631Z,45
2018-02-20T07:32:13.138Z,50
2018-02-20T07:33:26.921Z,50
2018-02-20T07:34:41.973Z,50
2018-02-20T07:35:56.287Z,50
2018-02-20T07:37:10.786Z,50
2018-02-20T07:38:25.332Z,55
2018-02-20T07:39:39.899Z,55
2018-02-20T07:40:54.590Z,55
2018-02-20T07:42:08.588Z,55
2018-02-20T07:43:22.631Z,60
2018-02-20T07:44:36.626Z,60
2018-02-20T07:45:51.165Z,60
2018-02-20T07:47:05.500Z,60
2018-02-20T07:48:19.603Z,65
2018-02-20T07:49:33.923Z,65
2018-02-20T07:50:48.219Z,65
2018-02-20T07:52:02.234Z,65
2018-02-20T07:53:17.054Z,70
2018-02-20T07:54:31.635Z,70
2018-02-20T07:55:45.894Z,70
2018-02-20T07:57:00.629Z,70
2018-02-20T07:58:14.225Z,70
2018-02-20T07:59:28.788Z,70
2018-02-20T08:00:43.012Z,70
2018-02-20T08:01:57.596Z,75
2018-02-20T08:03:11.856Z,75
2018-02-20T08:04:26.470Z,75
2018-02-20T08:05:41.164Z,75
2018-02-20T08:06:55.661Z,75
2018-02-20T08:08:09.674Z,80
2018-02-20T08:09:24.198Z,80
2018-02-20T08:10:37.767Z,80
2018-02-20T08:11:52.308Z,80
2018-02-20T08:13:06.570Z,80
2018-02-20T08:14:20.357Z,85
2018-02-20T08:15:34.148Z,85
2018-02-20T08:16:48.392Z,85
2018-02-20T08:18:03.183Z,85
2018-02-20T08:19:17.673Z,85
2018-02-20T08:20:31.722Z,85
2018-02-20T08:21:46.222Z,85
2018-02-20T08:23:00.506Z,85
2018-02-20T08:24:15.191Z,90
2018-02-20T08:25:29.198Z,90
2018-02-20T08:26:42.969Z,90
2018-02-20T08:27:57.258Z,90
2018-02-20T08:29:11.764Z,95
2018-02-20T08:30:26.066Z,95
2018-02-20T08:31:40.342Z,95
2018-02-20T08:32:54.863Z,95
2018-02-20T08:34:08.890Z,100
2018-02-20T08:35:23.410Z,95
2018-02-20T08:36:37.739Z,95
2018-02-20T08:37:52.324Z,95
2018-02-20T08:39:06.356Z,95
2018-02-20T08:40:20.910Z,95
2018-02-20T08:41:35.424Z,100
2018-02-20T08:42:49.920Z,100
2018-02-20T08:44:04.444Z,100
2018-02-20T08:45:18.507Z,100
2018-02-20T08:46:32.592Z,100
2018-02-20T08:47:46.648Z,100
2018-02-20T08:49:01.753Z,100
2018-02-20T08:50:15.797Z,100
2018-02-20T08:51:30.096Z,100
2018-02-20T08:52:44.232Z,105
2018-02-20T08:53:58.298Z,105
2018-02-20T08:55:12.953Z,105
2018-02-20T08:56:27.034Z,105
2018-02-20T08:57:41.107Z,105
2018-02-20T08:58:55.154Z,105
2018-02-20T09:00:08.952Z,115
2018-02-20T09:01:23.616Z,110
2018-02-20T09:02:37.381Z,110
2018-02-20T09:03:51.441Z,110
2018-02-20T09:05:05.694Z,110
2018-02-20T09:06:20.445Z,115
2018-02-20T09:07:35.042Z,115
2018-02-20T09:08:49.352Z,115
2018-02-20T09:10:03.146Z,115
2018-02-20T09:11:17.516Z,115
2018-02-20T09:12:31.792Z,115
2018-02-20T09:13:45.859Z,115
2018-02-20T09:15:00.212Z,120
2018-02-20T09:16:14.462Z,120
2018-02-20T09:17:28.615Z,120
2018-02-20T09:27:50.058Z,125
2018-02-20T09:29:03.875Z,125
2018-02-20T09:30:17.897Z,125
2018-02-20T09:31:31.970Z,125
2018-02-20T09:32:46.262Z,125
2018-02-20T09:34:00.802Z,125
2018-02-20T09:35:15.315Z,125
2018-02-20T09:36:29.575Z,130
2018-02-20T09:37:43.881Z,125
2018-02-20T09:38:57.637Z,125
2018-02-20T09:40:12.408Z,125
2018-02-20T09:41:26.441Z,125
2018-02-20T09:42:40.686Z,125
2018-02-20T09:43:54.562Z,125
2018-02-20T09:45:08.857Z,125
2018-02-20T09:46:24.027Z,125
2018-02-20T09:47:38.536Z,120
2018-02-20T09:48:52.555Z,120
2018-02-20T09:50:07.060Z,120
2018-02-20T09:51:21.424Z,115
2018-02-20T09:52:35.549Z,115
2018-02-20T09:53:49.907Z,115
2018-02-20T09:55:04.478Z,115
2018-02-20T09:56:18.986Z,115
2018-02-20T09:57:32.837Z,115
2018-02-20T09:58:46.300Z,115
2018-02-20T10:00:00.102Z,120
2018-02-20T10:01:14.397Z,120
2018-02-20T10:02:28.498Z,120
2018-02-20T10:03:42.772Z,120
2018-02-20T10:04:57.132Z,120
2018-02-20T10:06:11.193Z,115
2018-02-20T10:07:25.262Z,110
2018-02-20T10:08:40.231Z,110
2018-02-20T10:09:54.239Z,110
2018-02-20T10:11:09.102Z,110
2018-02-20T10:12:23.025Z,110
2018-02-20T10:13:37.525Z,110
2018-02-20T10:14:52.072Z,105
2018-02-20T10:16:06.567Z,105
2018-02-20T10:17:21.496Z,105
2018-02-20T10:18:35.512Z,105
2018-02-20T10:19:49.281Z,105
2018-02-20T10:21:03.612Z,105
2018-02-20T10:22:17.637Z,105
2018-02-20T10:23:32.511Z,105
2018-02-20T10:24:46.289Z,105
2018-02-20T10:26:00.352Z,105
2018-02-20T10:27:14.214Z,105
2018-02-20T10:28:28.762Z,105
2018-02-20T10:29:43.826Z,105
2018-02-20T10:30:58.123Z,105
2018-02-20T10:32:12.699Z,105
2018-02-20T10:33:27.100Z,105
2018-02-20T10:34:41.913Z,105
2018-02-20T10:35:56.612Z,105
2018-02-20T10:37:10.637Z,105
2018-02-20T10:38:24.149Z,105
2018-02-20T10:39:38.923Z,105
2018-02-20T10:40:53.374Z,105
2018-02-20T10:42:07.941Z,105
2018-02-20T10:43:22.680Z,105
2018-02-20T10:44:36.311Z,105
2018-02-20T10:45:50.707Z,110
2018-02-20T10:47:04.767Z,110
2018-02-20T10:48:18.945Z,115
2018-02-20T10:49:33.686Z,115
2018-02-20T10:50:48.108Z,115
2018-02-20T10:52:02.402Z,115
2018-02-20T10:53:16.741Z,115
2018-02-20T10:54:31.477Z,115
2018-02-20T10:55:46.461Z,115
2018-02-20T10:57:01.171Z,115
2018-02-20T10:58:15.687Z,115
2018-02-20T10:59:30.460Z,115
2018-02-20T11:00:45.121Z,115
2018-02-20T11:01:59.185Z,115
2018-02-20T11:03:13.515Z,115
2018-02-20T11:04:28.129Z,115
2018-02-20T11:05:42.417Z,110
2018-02-20T11:06:56.785Z,115
2018-02-20T11:08:11.326Z,115
2018-02-20T11:09:25.879Z,115
2018-02-20T11:10:40.403Z,115
2018-02-20T11:11:54.175Z,115
2018-02-20T11:13:09.269Z,115
2018-02-20T11:14:23.616Z,115
2018-02-20T11:15:37.704Z,115
2018-02-20T11:16:51.973Z,120
2018-02-20T11:18:06.715Z,125
2018-02-20T11:19:21.752Z,125
2018-02-20T11:20:35.795Z,130
2018-02-20T11:21:49.820Z,130
2018-02-20T11:23:03.900Z,130
2018-02-20T11:24:18.530Z,135
2018-02-20T11:25:32.627Z,130
2018-02-20T11:26:46.663Z,130
2018-02-20T11:28:00.456Z,135
2018-02-20T11:29:14.774Z,130
2018-02-20T11:30:28.857Z,130
2018-02-20T11:31:42.952Z,125
2018-02-20T11:32:57.256Z,125
2018-02-20T11:34:11.765Z,125
2018-02-20T11:35:26.320Z,125
2018-02-20T11:36:40.607Z,120
2018-02-20T11:37:55.188Z,120
2018-02-20T11:39:24.113Z,115
2018-02-20T11:40:38.477Z,115
2018-02-20T11:41:52.538Z,115
2018-02-20T11:43:06.723Z,110
2018-02-20T11:44:20.791Z,110
2018-02-20T11:45:35.178Z,110
2018-02-20T11:46:49.273Z,110
2018-02-20T11:48:03.357Z,110
2018-02-20T11:49:18.133Z,110
2018-02-20T11:50:33.014Z,115
2018-02-20T11:51:47.638Z,115
2018-02-20T11:53:01.693Z,115
2018-02-20T11:54:15.779Z,115
2018-02-20T11:55:29.848Z,115
2018-02-20T11:56:44.244Z,115
2018-02-20T11:57:58.583Z,115
2018-02-20T11:59:13.417Z,115
2018-02-20T12:00:27.709Z,115
2018-02-20T12:01:42.069Z,115
2018-02-20T12:02:56.586Z,120
2018-02-20T12:04:11.120Z,120
2018-02-20T12:05:25.625Z,120
2018-02-20T12:06:39.902Z,125
2018-02-20T12:07:54.543Z,125
2018-02-20T12:09:09.086Z,125
2018-02-20T12:10:23.489Z,125
2018-02-20T12:11:37.522Z,125
2018-02-20T12:12:52.063Z,125
2018-02-20T12:14:06.647Z,125
2018-02-20T12:15:21.331Z,125
2018-02-20T12:16:35.391Z,125
2018-02-20T12:17:49.261Z,130
2018-02-20T12:19:02.937Z,130
2018-02-20T12:20:17.884Z,130
2018-02-20T12:21:32.051Z,130
2018-02-20T12:22:46.171Z,130
2018-02-20T12:24:00.778Z,130
2018-02-20T12:25:14.394Z,130
2018-02-20T12:26:29.214Z,135
2018-02-20T12:27:43.008Z,135
2018-02-20T12:28:57.067Z,135
2018-02-20T12:30:11.095Z,135
2018-02-20T12:31:25.185Z,135
2018-02-20T12:32:40.026Z,135
2018-02-20T12:33:54.798Z,135
2018-02-20T12:35:08.867Z,135
2018-02-20T12:36:23.161Z,135
2018-02-20T12:37:37.793Z,130
2018-02-20T12:38:52.912Z,125
2018-02-20T12:40:07.583Z,125
2018-02-20T12:41:22.092Z,125
2018-02-20T12:42:36.248Z,130
2018-02-20T12:43:50.269Z,125
2018-02-20T12:45:05.157Z,125
2018-02-20T12:46:19.709Z,120
2018-02-20T12:47:34.094Z,125
2018-02-20T12:48:49.735Z,125
2018-02-20T12:50:04.096Z,125
2018-02-20T12:51:19.261Z,125
2018-02-20T12:52:34.181Z,125
2018-02-20T12:53:49.302Z,130
2018-02-20T12:55:03.576Z,130
2018-02-20T12:56:17.858Z,130
2018-02-20T12:57:32.216Z,135
2018-02-20T12:58:46.030Z,135
2018-02-20T13:00:00.371Z,135
2018-02-20T13:01:15.368Z,135
2018-02-20T13:02:30.362Z,135
2018-02-20T13:03:45.441Z,135
2018-02-20T13:04:59.790Z,135
2018-02-20T13:06:14.814Z,135
2018-02-20T13:07:29.035Z,135
2018-02-20T13:08:43.385Z,135
2018-02-20T13:09:59.795Z,135
2018-02-20T13:11:16.327Z,130
2018-02-20T13:12:31.211Z,130
2018-02-20T13:13:46.033Z,130
2018-02-20T13:15:00.780Z,130
2018-02-20T13:16:16.222Z,130
2018-02-20T13:17:30.438Z,130
2018-02-20T13:18:44.323Z,125
2018-02-20T13:19:58.743Z,130
2018-02-20T13:21:12.670Z,125
2018-02-20T13:22:26.804Z,125
2018-02-20T13:23:41.511Z,125
2018-02-20T13:24:56.861Z,120
2018-02-20T13:26:11.663Z,120
2018-02-20T13:27:26.402Z,120
2018-02-20T13:28:40.982Z,120
2018-02-20T13:29:54.882Z,120
2018-02-20T13:31:08.700Z,120
2018-02-20T13:32:22.759Z,120
2018-02-20T13:33:37.130Z,120
2018-02-20T13:34:51.740Z,120
2018-02-20T13:36:06.727Z,120
2018-02-20T13:37:21.132Z,115
2018-02-20T13:38:35.922Z,115
2018-02-20T13:39:50.098Z,115
2018-02-20T13:41:19.325Z,115
2018-02-20T13:42:33.884Z,115
2018-02-20T13:43:48.706Z,115
2018-02-20T13:45:03.138Z,115
2018-02-20T13:46:17.535Z,110
2018-02-20T13:47:32.652Z,110
2018-02-20T13:48:47.341Z,110
2018-02-20T13:50:01.856Z,110
2018-02-20T13:51:15.649Z,110
2018-02-20T13:52:29.858Z,105
2018-02-20T13:53:44.212Z,105
2018-02-20T13:54:58.074Z,100
2018-02-20T13:56:12.772Z,105
2018-02-20T13:57:27.311Z,105
2018-02-20T13:58:41.417Z,100
2018-02-20T13:59:56.783Z,100
2018-02-20T14:01:11.358Z,100
2018-02-20T14:02:25.659Z,100
2018-02-20T14:03:40.131Z,100
2018-02-20T14:04:54.464Z,100
2018-02-20T14:06:09.459Z,100
2018-02-20T14:07:24.110Z,100
2018-02-20T14:08:38.638Z,100
2018-02-20T14:09:52.708Z,100
2018-02-20T14:11:06.817Z,100
2018-02-20T14:12:21.189Z,105
2018-02-20T14:13:35.202Z,105
2018-02-20T14:14:49.238Z,100
2018-02-20T14:16:03.296Z,100
2018-02-20T14:17:17.896Z,100
2018-02-20T14:18:32.309Z,100
2018-02-20T14:19:47.193Z,100
2018-02-20T14:21:01.797Z,100
2018-02-20T14:22:16.734Z,100
2018-02-20T14:23:31.109Z,100
2018-02-20T14:24:45.752Z,95
2018-02-20T14:25:59.908Z,95
2018-02-20T14:27:14.191Z,90
2018-02-20T14:28:28.024Z,90
2018-02-20T14:29:42.323Z,90
2018-02-20T14:30:56.835Z,95
2018-02-20T14:32:11.470Z,95
2018-02-20T14:33:25.932Z,95
2018-02-20T14:34:40.389Z,100
2018-02-20T14:35:54.512Z,100
2018-02-20T14:37:09.304Z,100
2018-02-20T14:38:23.625Z,100
2018-02-20T14:39:38.360Z,100
2018-02-20T14:40:53.773Z,100
2018-02-20T14:42:08.645Z,100
2018-02-20T14:43:23.221Z,95
2018-02-20T14:44:37.595Z,90
2018-02-20T14:45:52.230Z,90
2018-02-20T14:47:06.826Z,90
2018-02-20T14:48:21.083Z,90
2018-02-20T14:49:35.903Z,95
2018-02-20T14:50:50.700Z,90
2018-02-20T14:52:04.675Z,85
2018-02-20T14:53:19.227Z,80
2018-02-20T14:54:33.361Z,80
2018-02-20T14:55:48.010Z,70
2018-02-20T14:57:02.817Z,80
2018-02-20T14:58:17.501Z,75
2018-02-20T14:59:32.166Z,75
2018-02-20T15:00:46.495Z,70
2018-02-20T15:02:01.421Z,70
2018-02-20T15:03:16.476Z,70
2018-02-20T15:04:30.477Z,70
2018-02-20T15:05:45.686Z,70
2018-02-20T15:06:59.936Z,70
2018-02-20T15:08:15.232Z,70
2018-02-20T15:09:29.315Z,65
2018-02-20T15:10:43.773Z,65
2018-02-20T15:11:58.491Z,65
2018-02-20T15:13:13.183Z,65
2018-02-20T15:14:28.037Z,65
2018-02-20T15:15:42.185Z,60
2018-02-20T15:16:57.181Z,60
2018-02-20T15:18:11.857Z,60
2018-02-20T15:19:26.142Z,55
2018-02-20T15:20:40.807Z,55
2018-02-20T15:21:55.350Z,55
2018-02-20T15:23:10.085Z,50
2018-02-20T15:24:24.969Z,50
2018-02-20T15:25:39.256Z,50
2018-02-20T15:26:54.209Z,50
2018-02-20T15:28:09.130Z,45
2018-02-20T15:29:23.726Z,45
2018-02-20T15:30:38.723Z,45
2018-02-20T15:31:53.743Z,45
2018-02-20T15:33:09.305Z,45
2018-02-20T15:34:25.197Z,40
2018-02-20T15:35:55.518Z,40
2018-02-20T15:37:11.520Z,40
2018-02-20T15:38:28.739Z,40
2018-02-20T15:39:44.568Z,40
2018-02-20T15:40:59.130Z,40
2018-02-20T15:42:14.026Z,40
2018-02-20T15:43:29.086Z,35
2018-02-20T15:44:45.334Z,35
2018-02-20T15:46:00.575Z,35
2018-02-20T15:47:15.712Z,35
2018-02-20T15:48:29.811Z,35
2018-02-20T15:49:45.227Z,35
2018-02-20T15:51:00.522Z,30
2018-02-20T15:52:14.660Z,30
2018-02-20T15:53:29.429Z,30
2018-02-20T15:54:43.235Z,30
2018-02-20T15:55:58.074Z,30
2018-02-20T15:57:12.545Z,30
2018-02-20T15:58:26.756Z,30
2018-02-20T15:59:41.222Z,30
2018-02-20T16:00:56.015Z,30
2018-02-20T16:02:10.725Z,30
2018-02-20T16:03:25.911Z,30
2018-02-20T16:04:40.465Z,30
2018-02-20T16:05:55.448Z,30
2018-02-20T16:07:24.870Z,25
2018-02-20T16:08:39.950Z,25
2018-02-20T16:09:55.469Z,25
2018-02-20T16:11:11.199Z,25
2018-02-20T16:12:25.806Z,25
2018-02-20T16:13:41.292Z,25
2018-02-20T16:14:56.015Z,25
2018-02-20T16:16:12.162Z,20
2018-02-20T16:17:28.344Z,20
2018-02-20T16:18:43.566Z,20
2018-02-20T16:19:58.213Z,20
2018-02-20T16:21:13.139Z,20
2018-02-20T16:22:27.896Z,15
2018-02-20T16:23:42.551Z,15
2018-02-20T16:24:57.610Z,15
2018-02-20T16:26:12.362Z,15
2018-02-20T16:27:28.201Z,15
2018-02-20T16:28:43.210Z,15
2018-02-20T16:29:58.669Z,10
2018-02-20T16:31:13.807Z,10
2018-02-20T16:32:29.017Z,10
2018-02-20T16:33:44.596Z,10
2018-02-20T16:34:59.419Z,10
2018-02-20T16:36:13.968Z,10
2018-02-20T16:37:29.112Z,10
2018-02-20T16:38:58.707Z,10
2018-02-20T16:40:28.778Z,5
2018-02-20T16:41:44.468Z,5
2018-02-20T16:42:58.977Z,5
2018-02-20T16:44:14.925Z,5
2018-02-20T16:45:29.684Z,5
2018-02-20T16:46:45.306Z,5
2018-02-20T16:48:00.965Z,5
2018-02-20T16:49:16.534Z,0
2018-02-20T16:50:31.615Z,0
2018-02-20T16:52:01.929Z,0
2018-02-20T16:53:18.128Z,0
2018-02-20T16:54:35.190Z,0
2018-02-20T16:55:50.520Z,0
2018-02-20T16:57:06.239Z,0
2018-02-20T16:58:22.109Z,0
2018-02-20T16:59:36.509Z,0
2018-02-20T17:00:52.781Z,0
2018-02-20T17:02:08.258Z,0
2018-02-20T17:03:22.944Z,0
2018-02-20T17:04:38.386Z,0
2018-02-20T17:05:53.570Z,0
2018-02-20T17:07:09.070Z,0
2018-02-20T17:08:23.802Z,0
2018-02-20T17:09:38.633Z,0
2018-02-20T17:11:08.645Z,0
2018-02-20T17:12:54.165Z,0
2018-02-20T17:14:09.605Z,0
2018-02-20T17:15:24.771Z,0
2018-02-20T17:16:39.030Z,0
2018-02-20T17:19:22.693Z,0
2018-02-20T17:20:36.302Z,0
2018-02-20T17:21:51.645Z,0
2018-02-20T17:23:05.757Z,0
2018-02-20T17:24:20.055Z,0
2018-02-20T17:25:34.651Z,0
2018-02-20T17:26:49.458Z,0
2018-02-20T17:28:04.098Z,0
2018-02-20T17:30:48.840Z,0
2018-02-20T17:32:03.318Z,0
2018-02-20T17:33:18.138Z,0
2018-02-20T17:34:33.195Z,0
2018-02-20T17:35:47.553Z,0
2018-02-20T17:37:02.363Z,0
2018-02-20T17:38:16.406Z,0
2018-02-20T17:39:30.962Z,0
2018-02-20T17:40:45.077Z,0
2018-02-20T17:41:59.668Z,0
2018-02-20T17:43:15.599Z,0
2018-02-20T17:44:29.624Z,0
2018-02-20T17:45:45.393Z,0
2018-02-20T17:46:59.737Z,0
2018-02-20T17:48:14.303Z,0
2018-02-20T17:49:29.205Z,0
2018-02-20T17:50:43.515Z,0
2018-02-20T17:51:58.900Z,0
2018-02-20T17:53:14.433Z,0
2018-02-20T17:54:30.086Z,0
2018-02-20T17:55:44.686Z,0
2018-02-20T17:56:59.302Z,0
2018-02-20T17:58:14.742Z,0
2018-02-20T17:59:29.696Z,0
2018-02-20T18:00:44.257Z,0